Time;durP1;ratioP1;P1;durP2;ratioP2;P2;SDS_P1;SDS_P2;PMS_P1;PMS_P2;Temp;Humidity;BMP_temperature;BMP_pressure;BME280_temperature;BME280_humidity;BME280_pressure;Samples;Min_cycle;Max_cycle;Signal;HPM_P1;HPM_P2
2022/01/28 00:01:46;;;;;;;21.75;7.95;;;;;;;5.14;63.42;98751.53;4377921;32;20122;-93
2022/01/28 00:04:17;;;;;;;19.67;7.37;;;;;;;5.36;62.69;98758.66;4377954;32;20683;-92
2022/01/28 00:06:43;;;;;;;20.75;8.88;;;;;;;5.42;62.49;98756.66;4377919;32;20152;-95
2022/01/28 00:09:08;;;;;;;18.60;7.65;;;;;;;5.67;61.51;98772.34;4377737;32;20098;-94
2022/01/28 00:11:34;;;;;;;20.35;7.72;;;;;;;5.71;61.34;98767.88;4377747;32;20179;-93
2022/01/28 00:14:22;;;;;;;18.48;7.78;;;;;;;5.86;60.65;98751.66;4377785;32;20410;-93
2022/01/28 00:38:37;;;;;;;21.77;7.80;;;;;;;6.14;59.76;98739.34;4425379;32;20144;-93
2022/01/28 00:41:02;;;;;;;23.23;8.85;;;;;;;6.36;58.91;98744.66;4425462;32;20074;-93
2022/01/28 00:43:28;;;;;;;19.40;8.07;;;;;;;6.33;58.86;98755.22;4425339;32;20208;-94
2022/01/28 00:45:53;;;;;;;20.42;8.43;;;;;;;6.41;58.90;98761.88;4425254;32;20089;-92
2022/01/28 00:48:19;;;;;;;22.80;8.93;;;;;;;6.56;58.14;98756.94;4426012;32;20108;-94
2022/01/28 00:50:47;;;;;;;21.02;9.02;;;;;;;6.58;57.94;98763.81;4425179;32;20078;-93
2022/01/28 00:53:13;;;;;;;21.98;8.07;;;;;;;6.51;58.08;98757.13;4411735;32;20098;-93
2022/01/28 00:55:38;;;;;;;23.02;8.32;;;;;;;6.64;57.83;98757.50;4411349;32;20366;-92
2022/01/28 00:58:04;;;;;;;19.45;8.50;;;;;;;6.83;57.42;98750.63;4425422;32;20112;-93
2022/01/28 01:00:29;;;;;;;21.02;8.23;;;;;;;6.91;57.05;98750.31;4425391;32;20078;-93
2022/01/28 01:02:55;;;;;;;20.83;8.88;;;;;;;6.91;57.01;98742.47;4425081;32;20141;-93
2022/01/28 01:05:22;;;;;;;21.62;8.90;;;;;;;7.03;56.73;98731.50;4425161;32;20129;-94
2022/01/28 01:07:47;;;;;;;22.87;8.95;;;;;;;6.91;56.90;98728.53;4425196;32;20086;-93
2022/01/28 01:10:13;;;;;;;22.02;9.15;;;;;;;7.06;56.57;98730.50;4424398;32;20101;-93
2022/01/28 01:12:43;;;;;;;19.10;8.23;;;;;;;7.20;56.12;98725.53;4425145;32;20153;-93
2022/01/28 01:15:11;;;;;;;19.92;8.50;;;;;;;7.23;55.87;98725.44;4425141;32;20159;-94
2022/01/28 01:17:43;;;;;;;21.75;8.90;;;;;;;7.17;55.63;98719.59;4425156;32;20102;-92
2022/01/28 01:20:21;;;;;;;21.23;7.95;;;;;;;6.85;56.51;98737.47;4425083;32;20074;-94
2022/01/28 01:23:24;;;;;;;22.30;8.40;;;;;;;7.02;56.32;98728.94;4425128;32;20098;-94
2022/01/28 01:26:14;;;;;;;18.73;7.87;;;;;;;7.24;55.66;98726.28;4422733;32;20133;-93
2022/01/28 01:28:37;;;;;;;21.05;7.93;;;;;;;7.33;55.35;98720.66;4421896;32;20150;-93
2022/01/28 01:31:05;;;;;;;21.55;8.45;;;;;;;7.38;55.24;98720.44;4425330;32;20112;-93
2022/01/28 01:33:35;;;;;;;;;;;;;;;7.48;54.89;98713.91;4425501;32;20166;-92
2022/01/28 01:36:01;;;;;;;22.33;8.48;;;;;;;7.51;54.67;98721.63;4412027;32;20009;-96
2022/01/28 01:38:31;;;;;;;19.00;7.75;;;;;;;7.39;54.74;98728.25;4425425;32;20062;-94
2022/01/28 01:41:00;;;;;;;19.12;7.53;;;;;;;7.40;54.68;98724.72;4425107;32;20081;-93
2022/01/28 01:54:07;;;;;;;18.15;7.47;;;;;;;7.08;54.87;98697.25;4424867;32;20166;-93
2022/01/28 01:56:33;;;;;;;17.10;6.87;;;;;;;7.23;54.56;98695.75;4410935;32;20434;-95
2022/01/28 01:58:59;;;;;;;16.83;7.22;;;;;;;6.93;55.21;98688.25;4425049;32;20429;-95
2022/01/28 02:01:25;;;;;;;16.80;6.53;;;;;;;7.03;54.76;98686.97;4425130;32;20136;-94
2022/01/28 02:03:51;;;;;;;18.62;7.55;;;;;;;7.15;54.37;98696.09;4425096;32;20427;-93
2022/01/28 02:06:21;;;;;;;17.02;6.30;;;;;;;7.07;54.69;98700.81;4425111;32;20453;-92
2022/01/28 02:08:46;;;;;;;16.58;7.03;;;;;;;6.71;55.48;98680.44;4411169;32;20089;-92
2022/01/28 02:11:12;;;;;;;16.58;6.68;;;;;;;6.38;56.40;98682.63;4425024;32;20404;-92
2022/01/28 02:13:39;;;;;;;15.38;5.57;;;;;;;6.26;56.78;98684.81;4410756;32;20174;-92
2022/01/28 02:16:06;;;;;;;16.53;7.07;;;;;;;6.30;56.81;98678.56;4424867;32;20513;-94
2022/01/28 02:18:32;;;;;;;14.63;6.10;;;;;;;5.62;58.43;98666.25;4410801;32;20058;-92
2022/01/28 02:21:08;;;;;;;15.45;6.18;;;;;;;5.90;58.19;98689.63;4423394;32;20120;-93
2022/01/28 02:23:33;;;;;;;14.55;4.93;;;;;;;5.76;58.57;98678.84;4435499;32;20117;-91
2022/01/28 02:26:00;;;;;;;14.63;5.35;;;;;;;5.77;58.37;98657.03;4424588;32;20203;-92
2022/01/28 02:28:28;;;;;;;13.57;5.25;;;;;;;5.92;58.03;98640.75;4424636;32;20124;-92
2022/01/28 02:30:54;;;;;;;;;;;;;;;5.75;58.55;98646.63;4410849;32;20434;-93
2022/01/28 02:33:20;;;;;;;16.12;5.07;;;;;;;5.86;58.12;98654.06;4410557;32;20028;-92
2022/01/28 02:35:47;;;;;;;12.90;4.97;;;;;;;5.79;58.25;98666.50;4424415;32;20148;-92
2022/01/28 02:38:14;;;;;;;14.73;5.63;;;;;;;5.74;58.54;98667.56;4425363;32;20112;-95
2022/01/28 02:40:44;;;;;;;12.40;4.43;;;;;;;5.60;59.07;98661.13;4464419;27;20101;-95
2022/01/28 02:45:46;;;;;;;13.25;3.80;;;;;;;5.77;58.63;98646.56;4463209;32;20109;-96
2022/01/28 02:48:21;;;;;;;12.05;4.15;;;;;;;5.34;59.46;98643.75;4462444;26;20377;-96
2022/01/28 02:51:03;;;;;;;10.07;3.70;;;;;;;5.32;59.64;98643.81;4447015;32;20073;-95
2022/01/28 02:53:41;;;;;;;12.65;4.70;;;;;;;5.32;59.44;98640.34;4434499;32;20163;-96
2022/01/28 02:56:16;;;;;;;12.00;4.12;;;;;;;5.60;59.09;98668.09;4446486;32;20153;-96
2022/01/28 02:58:42;;;;;;;12.60;4.07;;;;;;;5.59;58.75;98661.16;4434311;32;20120;-96
2022/01/28 03:01:13;;;;;;;11.82;4.70;;;;;;;6.04;57.58;98670.84;4447639;32;20094;-95
2022/01/28 03:03:40;;;;;;;13.05;4.75;;;;;;;5.85;58.05;98647.13;4446380;32;20123;-96
2022/01/28 03:06:05;;;;;;;12.83;4.63;;;;;;;6.01;57.54;98656.12;4431017;32;20537;-95
2022/01/28 03:08:31;;;;;;;10.97;4.37;;;;;;;6.30;56.86;98667.25;4445935;32;20097;-94
2022/01/28 03:16:15;;;;;;;11.57;4.37;;;;;;;5.91;58.21;98699.22;4440338;32;20127;-95
2022/01/28 03:18:47;;;;;;;10.30;3.62;;;;;;;5.99;58.06;98691.97;4439506;32;20097;-93
2022/01/28 03:23:47;;;;;;;10.38;3.40;;;;;;;5.74;58.69;98699.81;4440267;32;20094;-94
2022/01/28 03:26:14;;;;;;;10.82;3.90;;;;;;;6.01;57.84;98700.59;4439167;32;20097;-94
2022/01/28 03:28:39;;;;;;;11.23;4.40;;;;;;;5.86;58.40;98673.22;4440576;32;20093;-95
2022/01/28 03:31:04;;;;;;;11.05;3.87;;;;;;;5.88;58.45;98702.75;4439433;32;20135;-94
2022/01/28 03:33:30;;;;;;;12.20;3.75;;;;;;;6.04;57.90;98718.75;4440786;32;20121;-93
2022/01/28 03:35:55;;;;;;;10.18;3.35;;;;;;;5.80;58.44;98696.97;4441625;32;20159;-95
2022/01/28 03:38:21;;;;;;;10.10;3.60;;;;;;;5.95;57.87;98669.44;4442723;32;20459;-93
2022/01/28 03:40:49;;;;;;;10.18;3.28;;;;;;;6.20;57.21;98694.66;4441899;32;20112;-95
2022/01/28 03:43:14;;;;;;;8.65;3.00;;;;;;;6.15;57.25;98710.53;4441785;32;20101;-94
2022/01/28 03:45:39;;;;;;;9.68;3.15;;;;;;;6.27;56.93;98696.13;4441686;32;20127;-94
2022/01/28 03:48:05;;;;;;;8.10;2.90;;;;;;;6.28;56.81;98683.00;4427186;32;20188;-93
2022/01/28 03:50:33;;;;;;;9.57;3.25;;;;;;;6.13;56.91;98690.59;4440943;32;20163;-95
2022/01/28 03:53:02;;;;;;;10.15;3.42;;;;;;;6.18;56.85;98725.25;4441689;32;20127;-96
2022/01/28 03:55:28;;;;;;;10.00;3.40;;;;;;;6.29;56.33;98720.47;4442845;32;20093;-96
2022/01/28 03:57:53;;;;;;;10.88;3.50;;;;;;;6.00;57.02;98717.19;4442241;32;20142;-95
2022/01/28 04:00:19;;;;;;;9.70;3.40;;;;;;;6.21;56.68;98717.28;4429090;32;20432;-94
2022/01/28 04:02:46;;;;;;;9.25;3.50;;;;;;;6.49;56.00;98715.31;4442371;32;20120;-95
2022/01/28 04:13:25;;;;;;;8.80;2.87;;;;;;;5.92;56.79;98724.44;4440967;32;20128;-92
2022/01/28 04:16:28;;;;;;;9.13;2.65;;;;;;;5.96;56.76;98725.19;4441088;32;20158;-94
2022/01/28 04:18:35;;;;;;;9.00;2.90;;;;;;;5.88;56.97;98701.91;4440499;32;20172;-94
2022/01/28 04:21:01;;;;;;;8.63;2.90;;;;;;;5.69;57.31;98684.28;4440980;32;20094;-93
2022/01/28 04:23:26;;;;;;;8.00;2.55;;;;;;;5.56;57.74;98727.44;4440739;32;20413;-94
2022/01/28 04:25:52;;;;;;;7.70;2.45;;;;;;;5.54;57.68;98678.75;4440792;32;20093;-94
2022/01/28 04:28:17;;;;;;;8.15;2.70;;;;;;;5.51;57.92;98672.75;4440895;32;20135;-95
2022/01/28 04:30:42;;;;;;;8.23;2.92;;;;;;;5.28;58.03;98664.88;4440842;32;20355;-93
2022/01/28 04:33:08;;;;;;;8.20;2.30;;;;;;;5.33;57.71;98676.00;4428115;32;20113;-95
2022/01/28 04:35:34;;;;;;;9.77;2.70;;;;;;;5.45;57.40;98699.09;4442297;32;20155;-95
2022/01/28 04:40:27;;;;;;;9.70;3.28;;;;;;;5.51;57.20;98670.13;4442059;32;20090;-94
2022/01/28 04:43:05;;;;;;;9.55;2.50;;;;;;;4.94;58.96;98671.25;4442645;32;20139;-96
2022/01/28 04:45:54;;;;;;;8.13;2.40;;;;;;;5.09;58.72;98631.56;4440976;32;20092;-94
2022/01/28 05:17:10;;;;;;;7.35;1.95;;;;;;;5.03;58.58;98699.66;4406195;32;20117;-95
2022/01/28 05:27:17;;;;;;;5.60;1.83;;;;;;;5.04;57.83;98730.09;4402867;32;20126;-95
2022/01/28 05:29:43;;;;;;;6.72;1.70;;;;;;;5.25;57.19;98715.47;4405452;27;20117;-94
2022/01/28 05:32:09;;;;;;;5.87;1.90;;;;;;;5.17;57.35;98701.78;4398185;32;20386;-95
2022/01/28 05:34:38;;;;;;;3.42;1.33;;;;;;;5.03;57.78;98706.63;4398929;32;20831;-94
2022/01/28 05:37:04;;;;;;;5.25;1.70;;;;;;;5.39;57.00;98714.13;4386640;32;20121;-93
2022/01/28 05:39:30;;;;;;;4.43;1.33;;;;;;;5.07;57.37;98716.06;4394086;32;20611;-93
2022/01/28 05:41:55;;;;;;;4.07;1.20;;;;;;;5.10;57.62;98731.66;4400381;32;20110;-95
2022/01/28 05:44:21;;;;;;;4.78;1.50;;;;;;;4.99;58.14;98731.16;4386102;32;20114;-95
2022/01/28 05:46:47;;;;;;;5.70;1.55;;;;;;;5.18;57.35;98729.63;4425014;32;20091;-95
2022/01/28 05:49:13;;;;;;;4.75;1.50;;;;;;;5.05;57.60;98730.94;4442217;32;20460;-95
2022/01/28 05:51:43;;;;;;;5.03;1.50;;;;;;;5.44;56.82;98739.16;4445104;32;20100;-96
2022/01/28 05:54:08;;;;;;;5.15;1.65;;;;;;;5.34;57.19;98787.41;4446060;32;20103;-95
2022/01/28 05:56:34;;;;;;;5.72;1.62;;;;;;;5.29;57.33;98755.38;4446809;32;20900;-95
2022/01/28 05:58:59;;;;;;;5.40;1.50;;;;;;;5.38;57.26;98781.19;4445422;32;20089;-93
2022/01/28 06:01:25;;;;;;;8.35;2.10;;;;;;;5.42;57.29;98774.09;4440434;32;20097;-94
2022/01/28 06:03:51;;;;;;;4.70;1.45;;;;;;;5.44;57.31;98764.47;4440945;32;20137;-90
2022/01/28 06:06:22;;;;;;;5.87;1.90;;;;;;;5.40;57.47;98779.38;4425520;32;20113;-94
2022/01/28 06:08:48;;;;;;;6.30;1.70;;;;;;;5.52;57.25;98765.03;4439862;32;20097;-94
2022/01/28 06:11:14;;;;;;;4.93;1.58;;;;;;;5.64;56.71;98788.16;4446155;32;20081;-95
2022/01/28 06:13:40;;;;;;;4.78;1.50;;;;;;;5.57;56.75;98770.97;4445332;32;20093;-96
2022/01/28 06:16:05;;;;;;;4.87;1.50;;;;;;;5.53;57.15;98794.66;4448461;32;20085;-95
2022/01/28 06:18:30;;;;;;;5.03;1.40;;;;;;;5.59;56.80;98800.50;4448611;32;20101;-95
2022/01/28 06:20:56;;;;;;;6.20;1.60;;;;;;;5.66;56.47;98765.44;4447713;32;20081;-95
2022/01/28 06:23:21;;;;;;;4.72;1.50;;;;;;;5.83;56.13;98782.25;4446742;32;20446;-94
2022/01/28 06:25:48;;;;;;;5.50;1.37;;;;;;;5.73;56.00;98797.41;4441109;32;20442;-85
2022/01/28 06:28:13;;;;;;;5.43;1.83;;;;;;;5.72;55.85;98788.72;4439527;32;20081;-93
2022/01/28 06:30:39;;;;;;;6.30;1.73;;;;;;;5.61;55.94;98798.69;4439806;32;20127;-93
2022/01/28 06:33:04;;;;;;;3.92;1.25;;;;;;;5.55;56.16;98809.38;4431995;32;20101;-88
2022/01/28 06:35:30;;;;;;;6.03;1.65;;;;;;;5.57;55.89;98820.63;4430355;32;20098;-92
2022/01/28 06:37:55;;;;;;;4.85;1.50;;;;;;;5.84;55.39;98826.66;4429689;32;20190;-92
2022/01/28 06:40:21;;;;;;;5.45;1.50;;;;;;;5.97;54.71;98834.09;4426799;32;20082;-90
2022/01/28 06:42:46;;;;;;;5.12;1.60;;;;;;;5.88;54.67;98845.72;4440539;32;20116;-92
2022/01/28 06:45:12;;;;;;;4.50;1.52;;;;;;;5.88;54.64;98843.94;4435245;32;20111;-94
2022/01/28 06:47:37;;;;;;;5.00;1.48;;;;;;;6.10;54.07;98857.19;4443157;32;20069;-94
2022/01/28 06:50:05;;;;;;;4.50;1.40;;;;;;;6.23;53.89;98860.19;4430528;32;20116;-90
2022/01/28 06:52:31;;;;;;;5.45;1.40;;;;;;;6.14;53.83;98860.50;4436939;32;20093;-92
2022/01/28 06:54:57;;;;;;;4.40;1.40;;;;;;;5.96;54.12;98853.31;4427823;32;20146;-92
2022/01/28 06:57:22;;;;;;;5.50;1.40;;;;;;;6.25;53.34;98845.28;4421547;32;20089;-96
2022/01/28 06:59:48;;;;;;;3.87;1.30;;;;;;;5.95;53.91;98851.56;4448381;32;20089;-95
2022/01/28 07:02:13;;;;;;;4.45;1.40;;;;;;;6.46;52.37;98855.91;4429487;32;20154;-89
2022/01/28 07:04:38;;;;;;;4.80;1.27;;;;;;;5.85;53.08;98871.94;4436486;32;20111;-92
2022/01/28 07:07:05;;;;;;;5.25;1.33;;;;;;;6.02;53.16;98858.34;4427389;32;20160;-93
2022/01/28 07:09:31;;;;;;;5.20;1.23;;;;;;;6.12;52.60;98837.94;4434482;32;20111;-93
2022/01/28 07:11:56;;;;;;;5.12;1.23;;;;;;;6.32;51.57;98845.94;4432355;32;20167;-86
2022/01/28 07:14:22;;;;;;;5.90;1.60;;;;;;;6.44;51.28;98847.25;4436840;32;20089;-85
2022/01/28 07:16:47;;;;;;;5.43;1.25;;;;;;;6.52;51.16;98842.56;4435091;32;20439;-95
2022/01/28 07:19:13;;;;;;;3.72;1.00;;;;;;;6.14;52.13;98839.59;4446473;26;20122;-96
2022/01/28 07:27:01;;;;;;;3.62;1.15;;;;;;;6.08;52.28;98835.47;4495222;26;20074;-96
2022/01/28 07:29:30;;;;;;;3.62;1.20;;;;;;;6.26;51.94;98841.78;4431653;32;20575;-95
2022/01/28 07:31:59;;;;;;;4.68;1.37;;;;;;;5.94;51.71;98869.03;4948098;26;20121;-92
2022/01/28 07:34:46;;;;;;;4.70;1.20;;;;;;;6.17;51.30;98855.19;4438654;32;20123;-96
2022/01/28 07:40:03;;;;;;;3.50;1.00;;;;;;;6.59;49.57;98841.44;4643941;27;20066;-96
2022/01/28 07:42:33;;;;;;;5.72;1.10;;;;;;;6.53;49.46;98846.03;4835254;26;20172;-94
2022/01/28 07:44:58;;;;;;;3.47;1.00;;;;;;;6.29;50.03;98836.41;4449200;26;20073;-96
2022/01/28 07:47:24;;;;;;;3.20;1.10;;;;;;;6.31;49.96;98852.06;4435447;32;20129;-96
2022/01/28 07:49:49;;;;;;;4.00;1.20;;;;;;;6.61;49.44;98859.72;4418927;32;20399;-95
2022/01/28 07:52:15;;;;;;;3.15;0.82;;;;;;;6.36;49.34;98855.38;4422584;32;20147;-96
2022/01/28 07:54:46;;;;;;;3.37;0.98;;;;;;;6.63;48.81;98852.66;4551653;26;20070;-95
2022/01/28 07:57:12;;;;;;;2.53;1.00;;;;;;;6.43;49.21;98856.88;4410258;32;20163;-95
2022/01/28 07:59:37;;;;;;;3.05;1.00;;;;;;;6.87;47.92;98848.25;4412319;32;20082;-93
2022/01/28 08:02:03;;;;;;;4.68;1.00;;;;;;;6.61;48.08;98844.84;4425983;32;20124;-93
2022/01/28 08:04:28;;;;;;;3.62;1.08;;;;;;;6.53;48.16;98862.62;4427641;32;20401;-95
2022/01/28 08:06:54;;;;;;;2.85;0.90;;;;;;;6.63;48.04;98858.75;4423259;32;20102;-86
2022/01/28 08:09:19;;;;;;;2.37;0.93;;;;;;;6.75;47.58;98854.81;4421794;32;20439;-85
2022/01/28 08:11:47;;;;;;;4.78;0.98;;;;;;;6.70;47.27;98861.97;4427218;32;20093;-95
2022/01/28 08:14:14;;;;;;;2.65;0.90;;;;;;;6.81;47.06;98854.56;4422537;32;20144;-94
2022/01/28 08:16:40;;;;;;;2.95;0.90;;;;;;;6.63;47.34;98853.50;4393757;32;20509;-93
2022/01/28 08:19:05;;;;;;;6.10;1.10;;;;;;;6.85;46.88;98866.63;4395071;32;20149;-93
2022/01/28 08:21:31;;;;;;;4.15;0.90;;;;;;;6.86;46.64;98865.72;4408666;32;20128;-93
2022/01/28 08:23:56;;;;;;;3.25;0.98;;;;;;;6.74;46.66;98867.94;4396327;32;20142;-92
2022/01/28 08:26:22;;;;;;;2.95;1.20;;;;;;;6.83;46.22;98857.13;4410129;32;20078;-93
2022/01/28 08:28:48;;;;;;;3.28;0.60;;;;;;;7.07;45.99;98876.31;4410117;32;20415;-93
2022/01/28 08:31:13;;;;;;;2.45;0.90;;;;;;;6.87;46.00;98872.66;4410068;32;20147;-92
2022/01/28 08:33:39;;;;;;;2.65;1.00;;;;;;;6.90;45.83;98842.91;4410430;32;20088;-92
2022/01/28 08:36:05;;;;;;;2.72;0.80;;;;;;;6.39;45.65;98870.09;4396378;32;20340;-92
2022/01/28 08:38:36;;;;;;;3.70;0.80;;;;;;;6.67;45.59;98847.25;4410028;32;20116;-91
2022/01/28 08:41:03;;;;;;;4.65;0.95;;;;;;;7.00;44.92;98867.81;4397179;32;20090;-94
2022/01/28 08:43:28;;;;;;;3.60;0.90;;;;;;;6.74;45.16;98847.88;4410046;32;20102;-93
2022/01/28 08:45:54;;;;;;;1.95;0.70;;;;;;;6.83;44.66;98830.94;4396203;32;20178;-93
2022/01/28 08:48:20;;;;;;;2.33;0.70;;;;;;;6.71;45.03;98828.81;4410089;32;20479;-93
2022/01/28 08:50:45;;;;;;;2.42;0.70;;;;;;;6.83;44.46;98830.94;4410136;32;20094;-91
2022/01/28 08:53:11;;;;;;;3.30;0.90;;;;;;;6.80;44.49;98824.06;4410297;32;20152;-93
2022/01/28 08:55:40;;;;;;;6.18;0.70;;;;;;;6.86;44.17;98823.84;4383360;32;20121;-92
2022/01/28 08:58:07;;;;;;;2.90;0.65;;;;;;;6.80;44.38;98817.97;4396472;32;20162;-93
2022/01/28 09:00:32;;;;;;;2.25;0.52;;;;;;;6.65;44.70;98829.91;4396220;32;20109;-91
2022/01/28 09:02:57;;;;;;;1.92;0.50;;;;;;;6.59;44.85;98815.28;4409979;32;20442;-93
2022/01/28 09:05:23;;;;;;;1.85;0.50;;;;;;;6.80;44.51;98850.25;4396145;32;20426;-92
2022/01/28 09:07:49;;;;;;;3.62;0.70;;;;;;;6.84;44.33;98830.06;4409923;32;20094;-93
2022/01/28 09:10:18;;;;;;;2.95;0.60;;;;;;;6.67;44.68;98869.97;4396196;32;20124;-93
2022/01/28 09:15:15;;;;;;;3.90;0.70;;;;;;;6.66;44.96;98855.16;4396413;32;20102;-95
2022/01/28 09:17:40;;;;;;;2.65;0.80;;;;;;;7.00;44.50;98866.97;4409865;32;20094;-95
2022/01/28 09:20:06;;;;;;;1.98;0.60;;;;;;;6.99;44.47;98873.09;4409931;32;20156;-94
2022/01/28 09:22:32;;;;;;;3.92;0.93;;;;;;;6.92;44.72;98869.03;4409850;32;20098;-95
2022/01/28 09:24:57;;;;;;;2.37;0.68;;;;;;;7.00;44.64;98841.63;4409834;32;20151;-93
2022/01/28 09:27:23;;;;;;;6.22;0.77;;;;;;;7.45;43.95;98847.69;4409917;32;20141;-93
2022/01/28 09:29:48;;;;;;;3.00;0.70;;;;;;;6.92;44.93;98848.94;4395399;32;20114;-94
2022/01/28 09:32:16;;;;;;;2.90;0.65;;;;;;;7.07;44.90;98843.09;4409724;32;20122;-93
2022/01/28 09:34:42;;;;;;;3.20;0.80;;;;;;;6.74;45.10;98810.34;4409815;32;20159;-93
2022/01/28 09:37:07;;;;;;;2.15;0.60;;;;;;;6.86;45.09;98847.41;4409858;32;20098;-93
2022/01/28 09:39:35;;;;;;;3.20;0.80;;;;;;;6.74;45.28;98862.72;4409699;32;20140;-93
2022/01/28 09:42:03;;;;;;;3.90;1.12;;;;;;;6.89;45.34;98878.72;4395931;32;20163;-94
2022/01/28 09:44:30;;;;;;;2.55;0.77;;;;;;;7.00;44.77;98890.53;4396034;32;20149;-92
2022/01/28 09:46:58;;;;;;;2.50;0.70;;;;;;;7.26;44.54;98882.53;4395969;32;20108;-92
2022/01/28 09:49:23;;;;;;;2.65;0.60;;;;;;;7.04;44.79;98889.50;4409589;32;20175;-94
2022/01/28 09:51:49;;;;;;;2.22;0.75;;;;;;;7.55;43.47;98866.53;4383114;32;20109;-93
2022/01/28 09:54:15;;;;;;;2.28;0.60;;;;;;;7.45;43.52;98845.91;4409371;32;20335;-92
2022/01/28 09:56:41;;;;;;;4.47;0.95;;;;;;;7.29;43.15;98848.31;4395894;32;20070;-93
2022/01/28 09:59:06;;;;;;;3.53;0.60;;;;;;;7.16;43.89;98857.56;4409495;32;20151;-94
2022/01/28 10:01:34;;;;;;;1.23;0.50;;;;;;;7.00;43.32;98852.09;4395827;32;20094;-92
2022/01/28 10:04:05;;;;;;;3.78;1.10;;;;;;;7.28;43.06;98871.97;4409602;32;20086;-94
2022/01/28 10:06:33;;;;;;;5.87;0.70;;;;;;;7.08;43.36;98859.66;4395832;32;20082;-94
2022/01/28 10:09:02;;;;;;;8.35;1.42;;;;;;;7.34;42.66;98869.12;4409426;32;20120;-93
2022/01/28 10:11:28;;;;;;;8.75;0.80;;;;;;;7.46;42.16;98899.22;4395659;32;20164;-92
2022/01/28 10:13:56;;;;;;;4.32;0.90;;;;;;;7.52;42.00;98875.38;4409490;32;20378;-93
2022/01/28 10:16:27;;;;;;;3.65;0.68;;;;;;;7.41;41.96;98870.56;4409472;32;20074;-93
2022/01/28 10:19:11;;;;;;;4.00;0.85;;;;;;;7.19;41.98;98841.75;4409423;32;20090;-93
2022/01/28 10:21:42;;;;;;;2.50;0.85;;;;;;;7.52;41.77;98875.38;4395694;32;20133;-93
2022/01/28 10:24:35;;;;;;;4.70;1.10;;;;;;;7.78;41.50;98857.69;4409324;32;20081;-93
2022/01/28 10:27:09;;;;;;;2.30;0.60;;;;;;;7.98;40.17;98849.00;4408005;32;20192;-93
2022/01/28 10:29:43;;;;;;;4.55;0.68;;;;;;;7.38;41.01;98875.06;4409508;32;20102;-92
2022/01/28 10:32:13;;;;;;;6.05;1.00;;;;;;;7.68;40.64;98870.34;4409532;32;20098;-93
2022/01/28 10:34:46;;;;;;;5.37;0.75;;;;;;;7.94;40.29;98877.12;4409294;32;20480;-94
2022/01/28 10:37:11;;;;;;;3.75;0.82;;;;;;;7.90;40.02;98864.19;4409299;32;20078;-94
2022/01/28 10:39:46;;;;;;;6.43;0.70;;;;;;;7.77;40.33;98863.88;4409129;32;20405;-93
2022/01/28 10:42:15;;;;;;;5.82;0.70;;;;;;;7.89;40.12;98876.47;4409492;32;20082;-94
2022/01/28 10:45:10;;;;;;;3.33;0.60;;;;;;;7.92;39.11;98871.09;4410856;32;20472;-92
2022/01/28 10:47:36;;;;;;;4.05;1.00;;;;;;;8.00;39.00;98871.63;4410771;32;20170;-94
2022/01/28 10:50:15;;;;;;;4.03;0.70;;;;;;;8.17;38.18;98863.03;4410813;32;20090;-93
2022/01/28 10:52:40;;;;;;;5.57;0.90;;;;;;;8.29;37.64;98845.91;4410931;32;20081;-94
2022/01/28 10:55:06;;;;;;;3.25;0.70;;;;;;;8.01;37.79;98882.97;4410555;32;20192;-94
2022/01/28 10:57:32;;;;;;;3.72;0.70;;;;;;;7.93;38.19;98885.91;4397076;32;20094;-93
2022/01/28 10:59:58;;;;;;;5.20;0.90;;;;;;;7.80;38.94;98875.09;4410703;32;20101;-93
2022/01/28 11:02:26;;;;;;;4.03;0.70;;;;;;;8.11;38.75;98884.25;4410748;32;20086;-93
2022/01/28 11:04:55;;;;;;;1.05;0.47;;;;;;;8.68;37.80;98883.59;4410775;32;20090;-92
2022/01/28 11:07:20;;;;;;;5.22;0.70;;;;;;;8.64;37.87;98867.97;4396932;32;20102;-94
2022/01/28 11:09:47;;;;;;;3.72;0.90;;;;;;;8.52;37.88;98886.91;4396839;32;20480;-92
2022/01/28 11:12:13;;;;;;;2.90;0.90;;;;;;;8.61;37.91;98885.63;4397196;32;20153;-92
2022/01/28 11:14:39;;;;;;;4.18;1.00;;;;;;;8.47;38.46;98915.12;4397029;32;20116;-93
2022/01/28 11:17:04;;;;;;;8.00;1.08;;;;;;;8.50;38.97;98903.63;4396938;32;20090;-91
2022/01/28 11:19:33;;;;;;;7.07;0.90;;;;;;;8.16;39.84;98887.56;4396985;32;20496;-92
2022/01/28 11:22:33;;;;;;;4.22;0.80;;;;;;;8.06;40.37;98905.47;4410599;32;20102;-94
2022/01/28 11:25:05;;;;;;;;;;;;;;;8.19;40.59;98933.78;4410918;32;20082;-93
2022/01/28 11:27:36;;;;;;;3.15;0.70;;;;;;;8.03;40.87;98912.59;4410642;32;19969;-93
2022/01/28 11:30:25;;;;;;;3.75;0.80;;;;;;;8.22;40.75;98915.31;4396775;32;20504;-91
2022/01/28 11:33:00;;;;;;;6.97;0.95;;;;;;;8.47;40.34;98912.50;4410590;32;20082;-92
2022/01/28 11:35:32;;;;;;;7.75;0.85;;;;;;;8.20;40.64;98906.66;4411044;32;20378;-92
2022/01/28 11:38:03;;;;;;;2.35;0.62;;;;;;;7.96;40.46;98914.66;4410512;32;20090;-92
2022/01/28 11:40:42;;;;;;;4.72;0.65;;;;;;;7.78;40.62;98928.50;4410610;32;20146;-94
2022/01/28 11:43:22;;;;;;;3.85;0.90;;;;;;;7.76;40.89;98914.62;4396761;32;20363;-93
2022/01/28 11:46:03;;;;;;;3.35;0.70;;;;;;;7.64;41.08;98916.81;4410436;32;20122;-92
2022/01/28 11:48:51;;;;;;;5.12;1.00;;;;;;;7.68;41.15;98920.16;4396581;32;20500;-93
2022/01/28 11:51:17;;;;;;;3.40;0.73;;;;;;;7.93;40.28;98911.28;4410332;32;20116;-92
2022/01/28 11:53:57;;;;;;;4.45;0.73;;;;;;;7.83;40.44;98930.03;4410215;32;20462;-93
2022/01/28 11:56:26;;;;;;;3.15;0.70;;;;;;;7.77;40.70;98914.56;4410410;32;20492;-92
2022/01/28 11:59:00;;;;;;;6.95;0.90;;;;;;;7.92;40.47;98905.22;4410410;32;20511;-93
2022/01/28 12:01:40;;;;;;;5.75;0.90;;;;;;;7.82;40.86;98901.25;4410561;32;20101;-94
2022/01/28 12:04:29;;;;;;;4.32;0.80;;;;;;;8.10;40.80;98914.06;4410278;32;20116;-92
2022/01/28 12:06:55;;;;;;;3.08;0.80;;;;;;;7.51;42.02;98915.59;4410386;32;20095;-92
2022/01/28 12:09:23;;;;;;;2.55;0.70;;;;;;;7.07;43.17;98919.06;4396455;32;20446;-94
2022/01/28 12:11:48;;;;;;;4.03;1.37;;;;;;;7.57;42.44;98923.25;4410235;32;20164;-92
2022/01/28 12:14:14;;;;;;;6.68;0.90;;;;;;;7.67;42.24;98908.00;4396523;32;20105;-91
2022/01/28 12:16:43;;;;;;;3.05;0.70;;;;;;;7.67;42.37;98947.31;4410276;32;20470;-92
2022/01/28 12:19:17;;;;;;;3.55;0.80;;;;;;;7.53;42.80;98910.28;4410215;32;20086;-91
2022/01/28 12:22:08;;;;;;;5.82;1.45;;;;;;;7.52;42.93;98927.81;4396281;32;20121;-93
2022/01/28 12:24:35;;;;;;;5.53;0.82;;;;;;;7.54;42.57;98939.06;4396408;32;20110;-93
2022/01/28 12:27:07;;;;;;;3.55;0.70;;;;;;;8.23;41.59;98933.63;4410238;32;20107;-93
2022/01/28 12:29:35;;;;;;;2.80;0.75;;;;;;;7.88;42.07;98935.94;4410189;32;20108;-93
2022/01/28 12:32:01;;;;;;;4.12;0.90;;;;;;;8.23;41.54;98930.16;4410093;32;20102;-94
2022/01/28 12:34:27;;;;;;;4.97;0.98;;;;;;;8.18;41.75;98939.97;4410180;32;20098;-93
2022/01/28 12:36:56;;;;;;;6.15;1.00;;;;;;;8.12;41.80;98932.38;4410179;32;20086;-94
2022/01/28 12:39:35;;;;;;;4.20;0.80;;;;;;;8.27;41.57;98947.47;4410189;32;20086;-93
2022/01/28 12:42:11;;;;;;;;;;;;;;;8.37;41.42;98943.53;4410493;32;20099;-93
2022/01/28 12:44:38;;;;;;;4.07;0.80;;;;;;;7.80;42.47;98940.66;4410165;32;20019;-93
2022/01/28 12:47:05;;;;;;;3.23;0.70;;;;;;;7.74;42.69;98946.12;4396762;32;20094;-92
2022/01/28 12:49:33;;;;;;;3.72;0.80;;;;;;;7.67;42.93;98955.19;4410008;32;20155;-91
2022/01/28 12:52:06;;;;;;;4.15;0.70;;;;;;;7.42;43.32;98955.31;4409996;32;20098;-92
2022/01/28 12:54:43;;;;;;;3.97;0.90;;;;;;;7.85;42.68;98950.97;4409844;32;20135;-91
2022/01/28 12:57:10;;;;;;;5.72;1.10;;;;;;;7.76;42.70;98959.19;4396392;32;20575;-91
2022/01/28 12:59:37;;;;;;;3.40;0.90;;;;;;;7.46;43.17;98949.87;4410026;32;20078;-93
2022/01/28 13:02:03;;;;;;;4.78;0.90;;;;;;;7.57;42.90;98961.69;4410247;32;20118;-93
2022/01/28 13:04:56;;;;;;;6.78;0.90;;;;;;;7.30;43.79;98943.50;4409620;32;20090;-90
2022/01/28 13:09:57;;;;;;;3.42;0.90;;;;;;;7.44;43.47;98946.44;4409856;32;20109;-92
2022/01/28 13:12:27;;;;;;;3.78;0.90;;;;;;;7.64;43.20;98947.44;4410006;32;20133;-94
2022/01/28 13:14:53;;;;;;;3.55;1.05;;;;;;;7.61;43.09;98947.53;4410198;32;20101;-93
2022/01/28 13:17:23;;;;;;;5.32;1.00;;;;;;;7.64;43.12;98945.66;4410144;32;20457;-92
2022/01/28 13:20:00;;;;;;;5.87;0.90;;;;;;;7.34;43.54;98936.38;4409824;32;20165;-91
2022/01/28 13:22:27;;;;;;;5.15;0.90;;;;;;;7.07;43.99;98967.97;4409861;32;20090;-92
2022/01/28 13:24:53;;;;;;;5.22;0.90;;;;;;;7.33;43.44;98937.31;4410105;32;20731;-92
2022/01/28 13:27:20;;;;;;;5.68;0.80;;;;;;;7.31;43.65;98939.13;4396217;32;20109;-91
2022/01/28 13:29:51;;;;;;;4.00;1.00;;;;;;;7.44;43.31;98951.69;4409987;32;20136;-91
2022/01/28 13:32:25;;;;;;;6.03;0.93;;;;;;;7.33;43.49;98953.88;4396702;32;20113;-94